Urb Santa Maria Mayor, Puerto Rico
Current Conditions -  °F | °C
As of 9:53 PM on Sunday 21 Dec 2014 (Local Time) from TJNR Reporting Station
Few Clouds Few Clouds  
Wind Chill: 77°   Ceiling: Unl
Heat Index: 79°   Visibility: 10mi
Dew Point: 67°   Wind: 7mph
Humidity: 71%   Direction: 60°ENE
Pressure: 30.1"   Gusts: NA
Location:  18.1494°N, 65.8294°W
Report Text: TJNR 220153Z AUTO 06006KT 10SM FEW034 25/19 A3010 RMK AO2 SLP193 T02500194 $
Loading
Personal Weather Stations






























Interactive Weather Map New forecast layout! Learn more

10-Day Weather Forecast

Advertisements
Track Severe Weather on mobile